createdAt,value
2022-10-19T00:02:37.287Z,8.13
2022-10-19T00:07:38.957Z,7.80
2022-10-19T00:10:04.211Z,8.58
2022-10-19T00:11:13.254Z,8.55
2022-10-19T00:13:38.394Z,8.20
2022-10-19T00:16:11.342Z,8.60
2022-10-19T00:18:36.670Z,8.18
2022-10-19T00:22:22.733Z,7.82
2022-10-19T00:23:33.128Z,8.65
2022-10-19T00:24:42.749Z,8.50
2022-10-19T00:25:56.955Z,7.65
2022-10-19T00:27:07.922Z,8.28
2022-10-19T00:29:26.286Z,8.57
2022-10-19T00:30:38.608Z,8.68
2022-10-19T00:33:05.108Z,8.62
2022-10-19T00:35:28.515Z,8.12
2022-10-19T00:36:40.576Z,8.98
2022-10-19T00:39:08.216Z,8.53
2022-10-19T00:41:36.403Z,8.28
2022-10-19T00:42:46.043Z,8.00
2022-10-19T00:44:00.543Z,7.72
2022-10-19T00:45:15.598Z,8.33
2022-10-19T00:47:44.968Z,8.35
2022-10-19T00:50:14.983Z,8.63
2022-10-19T00:51:26.506Z,8.27
2022-10-19T00:52:36.255Z,7.90
2022-10-19T00:53:45.555Z,7.92
2022-10-19T00:54:56.998Z,8.50
2022-10-19T00:56:09.632Z,8.53
2022-10-19T00:58:34.976Z,8.80
2022-10-19T00:59:45.806Z,7.70
2022-10-19T01:02:30.285Z,8.82
2022-10-19T01:03:40.858Z,8.88
2022-10-19T01:06:09.440Z,9.17
2022-10-19T01:07:20.265Z,7.67
2022-10-19T01:08:31.135Z,8.35
2022-10-19T01:12:24.208Z,8.55
2022-10-19T01:13:42.819Z,8.25
2022-10-19T01:16:51.918Z,8.08
2022-10-19T01:19:41.034Z,8.33
2022-10-19T01:22:51.815Z,8.80
2022-10-19T01:24:22.443Z,8.73
2022-10-19T01:28:48.230Z,9.03
2022-10-19T01:31:28.780Z,8.87
2022-10-19T01:32:59.424Z,8.32
2022-10-19T01:35:49.335Z,8.85
2022-10-19T01:39:04.271Z,8.53
2022-10-19T01:40:23.769Z,9.25
2022-10-19T02:06:54.649Z,9.72
2022-10-19T02:09:26.097Z,9.58
2022-10-19T02:10:37.764Z,8.70
2022-10-19T02:11:51.350Z,8.77
2022-10-19T02:13:03.570Z,8.62
2022-10-19T02:14:16.504Z,8.28
2022-10-19T02:15:28.699Z,9.65
2022-10-19T02:18:00.248Z,8.67
2022-10-19T02:20:29.780Z,8.05
2022-10-19T02:22:55.876Z,8.37
2022-10-19T02:24:05.612Z,8.55
2022-10-19T02:25:15.891Z,8.90
2022-10-19T02:26:27.954Z,8.40
2022-10-19T02:27:41.465Z,8.77
2022-10-19T02:30:09.725Z,8.27
2022-10-19T02:32:37.133Z,8.63
2022-10-19T02:35:02.441Z,9.12
2022-10-19T02:37:27.364Z,8.93
2022-10-19T02:38:37.245Z,8.88
2022-10-19T02:39:47.069Z,7.97
2022-10-19T02:42:40.130Z,8.43
2022-10-19T02:45:14.757Z,8.92
2022-10-19T02:47:46.517Z,9.50
2022-10-19T02:50:13.852Z,8.83
2022-10-19T02:51:39.386Z,8.55
2022-10-19T02:52:49.413Z,9.50
2022-10-19T02:54:02.614Z,9.78
2022-10-19T02:55:11.540Z,9.25
2022-10-19T02:56:21.647Z,10.02
2022-10-19T02:58:46.890Z,8.80
2022-10-19T03:01:11.426Z,9.37
2022-10-19T03:03:36.598Z,8.80
2022-10-19T03:06:02.575Z,8.65
2022-10-19T03:07:17.864Z,9.22
2022-10-19T03:08:26.874Z,9.53
2022-10-19T03:09:36.611Z,9.00
2022-10-19T03:10:46.857Z,9.30
2022-10-19T03:13:11.178Z,9.33
2022-10-19T03:14:20.775Z,9.60
2022-10-19T03:15:29.341Z,9.08
2022-10-19T03:16:39.115Z,9.28
2022-10-19T03:19:23.054Z,9.25
2022-10-19T03:20:32.335Z,9.77
2022-10-19T03:21:42.103Z,8.77
2022-10-19T03:24:01.995Z,9.25
2022-10-19T03:25:10.999Z,10.00
2022-10-19T03:26:21.039Z,9.47
2022-10-19T03:28:44.627Z,8.97
2022-10-19T03:29:53.913Z,10.03
2022-10-19T03:32:17.567Z,9.27
2022-10-19T03:33:27.252Z,9.75
2022-10-19T03:36:12.615Z,9.53
2022-10-19T03:37:21.738Z,9.60
2022-10-19T03:39:46.426Z,9.15
2022-10-19T03:42:12.615Z,9.43
2022-10-19T03:45:46.804Z,9.75
2022-10-19T03:46:56.265Z,10.42
2022-10-19T03:49:22.969Z,10.10
2022-10-19T03:51:47.902Z,10.15
2022-10-19T03:54:15.512Z,10.45
2022-10-19T03:56:40.386Z,9.92
2022-10-19T03:59:05.979Z,10.20
2022-10-19T04:01:35.300Z,10.53
2022-10-19T04:04:02.659Z,10.75
2022-10-19T04:06:37.017Z,9.55
2022-10-19T04:07:46.743Z,10.50
2022-10-19T04:10:12.318Z,10.58
2022-10-19T04:12:40.756Z,10.22
2022-10-19T04:16:37.890Z,10.97
2022-10-19T04:17:48.601Z,11.30
2022-10-19T04:18:58.906Z,11.18
2022-10-19T04:20:08.874Z,11.98
2022-10-19T04:22:40.551Z,11.58
2022-10-19T04:25:09.966Z,12.60
2022-10-19T04:26:20.919Z,13.68
2022-10-19T04:28:45.677Z,11.63
2022-10-19T04:29:55.348Z,12.00
2022-10-19T04:31:07.160Z,12.53
2022-10-19T04:33:34.410Z,11.75
2022-10-19T04:36:01.879Z,12.08
2022-10-19T04:37:10.950Z,13.00
2022-10-19T04:38:20.686Z,12.02
2022-10-19T04:40:44.152Z,12.18
2022-10-19T04:43:09.761Z,13.03
2022-10-19T04:45:37.491Z,13.23
2022-10-19T04:48:01.907Z,12.32
2022-10-19T04:50:27.113Z,12.48
2022-10-19T04:52:54.668Z,12.35
2022-10-19T04:55:20.347Z,13.00
2022-10-19T04:57:47.515Z,12.43
2022-10-19T05:00:15.255Z,13.18
2022-10-19T05:02:45.629Z,12.77
2022-10-19T05:05:14.013Z,12.87
2022-10-19T05:07:41.075Z,14.05
2022-10-19T05:10:08.760Z,13.75
2022-10-19T05:12:36.373Z,12.85
2022-10-19T05:15:03.064Z,88.88
2022-10-19T05:17:34.168Z,109.82
2022-10-19T05:20:01.669Z,17.25
2022-10-19T05:22:29.974Z,13.25
2022-10-19T05:24:58.067Z,79.97
2022-10-19T05:27:25.904Z,18.30
2022-10-19T05:29:50.861Z,17.70
2022-10-19T05:32:29.417Z,13.90
2022-10-19T05:34:55.190Z,13.95
2022-10-19T05:37:54.722Z,14.42
2022-10-19T05:40:23.021Z,13.85
2022-10-19T05:42:47.838Z,12.78
2022-10-19T05:45:13.560Z,13.53
2022-10-19T05:47:44.566Z,13.73
2022-10-19T05:48:56.148Z,12.73
2022-10-19T05:51:23.493Z,14.45
2022-10-19T05:53:48.987Z,12.35
2022-10-19T05:56:16.711Z,11.03
2022-10-19T05:58:42.138Z,11.15
2022-10-19T06:01:06.134Z,11.22
2022-10-19T06:03:31.766Z,11.15
2022-10-19T06:05:57.851Z,11.23
2022-10-19T06:08:24.125Z,10.57
2022-10-19T06:10:51.098Z,9.97
2022-10-19T06:13:20.282Z,10.38
2022-10-19T06:15:49.415Z,9.00
2022-10-19T06:18:15.140Z,8.07
2022-10-19T06:20:43.478Z,8.13
2022-10-19T06:23:09.881Z,6.35
2022-10-19T06:25:37.426Z,6.75
2022-10-19T06:28:02.313Z,7.68
2022-10-19T06:30:27.674Z,5.40
2022-10-19T06:32:53.125Z,17.30
2022-10-19T06:35:18.295Z,6.23
2022-10-19T06:37:45.533Z,4.08
2022-10-19T06:40:12.174Z,4.10
2022-10-19T06:42:39.658Z,4.25
2022-10-19T06:45:10.192Z,4.15
2022-10-19T06:47:38.071Z,3.93
2022-10-19T06:50:10.333Z,4.25
2022-10-19T06:52:55.134Z,3.55
2022-10-19T06:55:19.922Z,4.30
2022-10-19T06:56:29.602Z,3.28
2022-10-19T06:58:55.580Z,4.72
2022-10-19T07:01:25.228Z,6.05
2022-10-19T07:03:52.470Z,4.00
2022-10-19T07:06:16.556Z,3.78
2022-10-19T07:08:43.440Z,3.12
2022-10-19T07:11:11.965Z,3.28
2022-10-19T07:13:37.301Z,2.93
2022-10-19T07:16:06.432Z,2.93
2022-10-19T07:18:32.053Z,2.08
2022-10-19T07:21:03.445Z,1.62
2022-10-19T07:23:28.694Z,1.92
2022-10-19T07:25:54.641Z,1.48
2022-10-19T07:28:20.405Z,1.62
2022-10-19T07:30:44.760Z,1.25
2022-10-19T07:33:09.377Z,1.30
2022-10-19T07:35:32.814Z,1.50
2022-10-19T07:38:00.963Z,1.60
2022-10-19T07:40:25.634Z,1.42
2022-10-19T07:42:49.810Z,1.53
2022-10-19T07:43:59.530Z,1.52
2022-10-19T07:45:10.201Z,1.27
2022-10-19T07:47:41.016Z,1.60
2022-10-19T07:50:05.683Z,7.75
2022-10-19T07:52:35.948Z,3.58
2022-10-19T07:55:00.180Z,2.45
2022-10-19T07:57:29.676Z,1.40
2022-10-19T07:58:39.846Z,1.80
2022-10-19T08:02:25.012Z,1.37
2022-10-19T08:05:00.217Z,1.20
2022-10-19T08:07:23.288Z,1.02
2022-10-19T08:08:33.104Z,1.10
2022-10-19T08:09:57.787Z,1.12
2022-10-19T08:12:14.885Z,1.30
2022-10-19T08:14:35.583Z,1.37
2022-10-19T08:15:45.403Z,1.40
2022-10-19T08:16:54.706Z,1.37
2022-10-19T08:19:18.294Z,1.33
2022-10-19T08:21:46.552Z,2.23
2022-10-19T08:24:14.445Z,1.70
2022-10-19T08:26:39.574Z,1.67
2022-10-19T08:27:50.084Z,1.60
2022-10-19T08:30:21.626Z,1.72
2022-10-19T08:32:45.878Z,1.98
2022-10-19T08:35:30.709Z,2.33
2022-10-19T08:37:54.764Z,1.90
2022-10-19T08:40:27.712Z,1.90
2022-10-19T08:41:43.836Z,1.97
2022-10-19T08:44:36.348Z,2.55
2022-10-19T08:47:25.375Z,2.25
2022-10-19T08:49:54.013Z,2.43
2022-10-19T08:52:34.421Z,2.20
2022-10-19T08:55:19.798Z,2.85
2022-10-19T08:57:55.446Z,2.82
2022-10-19T09:00:42.157Z,2.10
2022-10-19T09:03:54.524Z,2.10
2022-10-19T09:06:24.192Z,1.65
2022-10-19T09:08:57.760Z,2.02
2022-10-19T09:11:49.751Z,1.80
2022-10-19T09:14:52.714Z,1.63
2022-10-19T09:16:04.469Z,1.48
2022-10-19T09:17:18.316Z,1.52
2022-10-19T09:19:46.031Z,1.60
2022-10-19T09:22:25.314Z,1.50
2022-10-19T09:25:16.085Z,1.55
2022-10-19T09:29:22.589Z,1.25
2022-10-19T09:31:52.110Z,1.70
2022-10-19T09:34:21.743Z,1.60
2022-10-19T09:36:57.344Z,1.37
2022-10-19T09:38:07.256Z,1.60
2022-10-19T09:39:15.914Z,1.35
2022-10-19T09:41:49.979Z,1.70
2022-10-19T09:44:16.413Z,1.72
2022-10-19T09:47:17.493Z,1.90
2022-10-19T09:48:33.148Z,12.50
2022-10-19T09:52:40.270Z,2.30
2022-10-19T09:55:19.383Z,1.65
2022-10-19T09:57:45.681Z,1.90
2022-10-19T10:00:21.872Z,1.85
2022-10-19T10:01:41.478Z,1.78
2022-10-19T10:02:53.090Z,2.05
2022-10-19T10:05:39.284Z,2.07
2022-10-19T10:06:49.834Z,1.58
2022-10-19T10:09:18.612Z,1.70
2022-10-19T10:14:32.723Z,2.38
2022-10-19T10:17:05.864Z,1.95
2022-10-19T10:18:17.261Z,2.20
2022-10-19T10:19:30.251Z,1.90
2022-10-19T10:21:58.523Z,2.30
2022-10-19T10:24:29.977Z,1.95
2022-10-19T10:26:58.655Z,2.60
2022-10-19T10:29:39.450Z,1.83
2022-10-19T10:32:22.369Z,2.00
2022-10-19T10:35:06.086Z,2.10
2022-10-19T10:37:40.950Z,1.65
2022-10-19T10:38:56.665Z,1.70
2022-10-19T10:40:22.595Z,1.80
2022-10-19T10:42:56.272Z,1.95
2022-10-19T10:47:01.442Z,1.80
2022-10-19T10:51:20.271Z,1.53
2022-10-19T10:53:46.335Z,1.92
2022-10-19T10:55:11.433Z,2.57
2022-10-19T10:57:50.870Z,2.10
2022-10-19T10:59:06.089Z,1.50
2022-10-19T11:00:18.294Z,2.18
2022-10-19T11:01:32.043Z,1.92
2022-10-19T11:04:18.733Z,1.80
2022-10-19T11:06:59.325Z,1.73
2022-10-19T11:10:26.680Z,5.75
2022-10-19T11:13:12.827Z,2.18
2022-10-19T11:14:25.207Z,2.12
2022-10-19T11:15:53.984Z,2.25
2022-10-19T11:18:48.783Z,2.72
2022-10-19T11:21:19.545Z,5.78
2022-10-19T11:24:11.238Z,3.93
2022-10-19T11:25:25.751Z,3.03
2022-10-19T11:29:37.591Z,2.53
2022-10-19T11:32:39.188Z,1.83
2022-10-19T11:35:51.269Z,2.02
2022-10-19T11:37:07.915Z,1.77
2022-10-19T11:38:37.079Z,1.58
2022-10-19T11:41:45.811Z,1.75
2022-10-19T11:44:44.151Z,2.07
2022-10-19T11:47:42.511Z,1.47
2022-10-19T11:50:49.729Z,1.30
2022-10-19T11:57:29.265Z,1.50
2022-10-19T12:00:37.763Z,2.42
2022-10-19T12:04:58.161Z,2.22
2022-10-19T12:09:18.768Z,2.25
2022-10-19T12:12:25.054Z,1.80
2022-10-19T12:13:44.320Z,1.55
2022-10-19T12:16:15.032Z,1.85
2022-10-19T12:18:51.072Z,1.80
2022-10-19T12:20:03.881Z,2.10
2022-10-19T12:22:45.924Z,2.38
2022-10-19T12:23:58.374Z,2.55
2022-10-19T12:26:28.375Z,2.68
2022-10-19T12:27:39.213Z,2.45
2022-10-19T12:30:11.859Z,2.00
2022-10-19T12:31:23.706Z,2.33
2022-10-19T12:34:03.668Z,2.45
2022-10-19T12:37:04.834Z,2.25
2022-10-19T12:40:10.584Z,2.22
2022-10-19T12:42:57.818Z,1.77
2022-10-19T12:45:47.340Z,2.02
2022-10-19T12:48:20.796Z,2.17
2022-10-19T12:52:19.982Z,2.20
2022-10-19T12:53:44.417Z,1.95
2022-10-19T12:56:25.355Z,2.00
2022-10-19T12:58:56.293Z,1.90
2022-10-19T13:01:31.427Z,2.50
2022-10-19T13:04:15.758Z,2.10
2022-10-19T13:06:46.233Z,2.00
2022-10-19T13:07:57.152Z,1.98
2022-10-19T13:09:10.218Z,2.32
2022-10-19T13:11:45.244Z,1.87
2022-10-19T13:12:56.203Z,2.50
2022-10-19T13:15:39.904Z,2.28
2022-10-19T13:18:38.780Z,2.43
2022-10-19T13:21:03.731Z,2.58
2022-10-19T13:22:28.693Z,2.47
2022-10-19T13:23:40.329Z,2.45
2022-10-19T13:26:35.066Z,2.68
2022-10-19T13:27:45.885Z,2.25
2022-10-19T13:28:55.826Z,2.30
2022-10-19T13:31:26.469Z,2.37
2022-10-19T13:33:59.582Z,2.33
2022-10-19T13:35:32.542Z,2.70
2022-10-19T13:38:21.189Z,2.25
2022-10-19T13:40:52.565Z,3.03
2022-10-19T13:43:29.754Z,2.87
2022-10-19T13:46:03.441Z,3.08
2022-10-19T13:49:36.638Z,2.12
2022-10-19T13:54:02.663Z,2.20
2022-10-19T13:57:09.801Z,2.40
2022-10-19T14:02:08.030Z,2.78
2022-10-19T14:03:23.370Z,2.57
2022-10-19T14:06:18.979Z,2.37
2022-10-19T14:10:32.935Z,2.85
2022-10-19T14:12:56.325Z,2.45
2022-10-19T14:14:14.764Z,2.43
2022-10-19T14:16:56.023Z,3.02
2022-10-19T14:19:46.026Z,3.25
2022-10-19T14:22:34.731Z,3.93
2022-10-19T14:25:08.997Z,3.43
2022-10-19T14:27:38.774Z,3.92
2022-10-19T14:30:24.282Z,5.70
2022-10-19T14:32:54.018Z,4.35
2022-10-19T14:34:07.025Z,4.88
2022-10-19T14:36:47.193Z,5.03
2022-10-19T14:39:34.375Z,5.32
2022-10-19T14:43:26.712Z,5.43
2022-10-19T14:46:11.315Z,5.55
2022-10-19T14:47:23.621Z,5.95
2022-10-19T14:49:50.116Z,5.38
2022-10-19T14:52:19.231Z,6.13
2022-10-19T14:55:08.056Z,5.55
2022-10-19T14:57:42.189Z,5.97
2022-10-19T15:00:21.142Z,5.88
2022-10-19T15:04:32.270Z,5.60
2022-10-19T15:07:03.154Z,5.77
2022-10-19T15:09:47.953Z,5.87
2022-10-19T15:12:11.213Z,5.90
2022-10-19T15:14:47.959Z,6.28
2022-10-19T15:17:28.961Z,7.63
2022-10-19T15:20:01.074Z,7.10
2022-10-19T15:22:38.800Z,8.07
2022-10-19T15:23:53.502Z,8.03
2022-10-19T15:26:29.204Z,7.47
2022-10-19T15:30:33.259Z,6.58
2022-10-19T15:33:05.219Z,6.18
2022-10-19T15:35:45.083Z,5.97
2022-10-19T15:38:20.918Z,5.67
2022-10-19T15:41:00.176Z,4.50
2022-10-19T15:43:56.160Z,3.50
2022-10-19T15:48:12.871Z,3.22
2022-10-19T15:50:59.198Z,3.67
2022-10-19T15:53:33.875Z,3.58
2022-10-19T15:55:58.642Z,4.17
2022-10-19T15:58:50.257Z,3.38
2022-10-19T16:01:19.759Z,3.50
2022-10-19T16:03:44.504Z,4.40
2022-10-19T16:06:09.988Z,3.17
2022-10-19T16:08:47.011Z,5.30
2022-10-19T16:11:15.675Z,4.43
2022-10-19T16:13:41.424Z,3.52
2022-10-19T16:16:11.283Z,4.65
2022-10-19T16:18:35.943Z,3.28
2022-10-19T16:21:02.273Z,3.15
2022-10-19T16:22:13.377Z,3.48
2022-10-19T16:24:38.124Z,3.00
2022-10-19T16:25:46.897Z,3.32
2022-10-19T16:28:11.956Z,2.53
2022-10-19T16:30:36.283Z,2.98
2022-10-19T16:32:59.918Z,3.07
2022-10-19T16:35:32.372Z,2.75
2022-10-19T16:36:42.319Z,2.45
2022-10-19T16:39:06.066Z,2.15
2022-10-19T16:40:16.432Z,2.08
2022-10-19T16:42:40.022Z,2.30
2022-10-19T16:45:08.622Z,2.77
2022-10-19T16:47:36.909Z,8.62
2022-10-19T16:50:03.674Z,19.50
2022-10-19T16:51:31.683Z,5.27
2022-10-19T16:52:40.241Z,2.67
2022-10-19T16:53:52.199Z,5.85
2022-10-19T16:56:15.678Z,7.65
2022-10-19T16:57:25.267Z,3.22
2022-10-19T17:02:26.492Z,2.15
2022-10-19T17:04:51.298Z,2.10
2022-10-19T17:07:19.160Z,2.27
2022-10-19T17:09:49.772Z,2.02
2022-10-19T17:12:17.353Z,2.48
2022-10-19T17:13:27.965Z,2.25
2022-10-19T17:14:40.138Z,2.20
2022-10-19T17:15:50.093Z,2.67
2022-10-19T17:17:01.242Z,2.47
2022-10-19T17:18:10.882Z,2.35
2022-10-19T17:19:20.595Z,2.50
2022-10-19T17:21:44.976Z,1.97
2022-10-19T17:22:54.236Z,2.60
2022-10-19T17:24:05.827Z,2.65
2022-10-19T17:25:14.526Z,3.23
2022-10-19T17:26:30.074Z,2.87
2022-10-19T17:27:39.206Z,3.00
2022-10-19T17:28:49.221Z,2.65
2022-10-19T17:29:58.885Z,2.65
2022-10-19T17:31:11.345Z,2.62
2022-10-19T17:33:39.272Z,4.30
2022-10-19T17:36:12.819Z,2.82
2022-10-19T17:37:21.439Z,2.78
2022-10-19T17:39:45.314Z,2.52
2022-10-19T17:42:09.508Z,2.65
2022-10-19T17:44:33.083Z,2.53
2022-10-19T17:47:16.187Z,3.05
2022-10-19T17:48:25.547Z,2.95
2022-10-19T17:49:34.750Z,2.65
2022-10-19T17:51:59.873Z,2.98
2022-10-19T17:54:23.613Z,2.77
2022-10-19T17:55:36.941Z,3.25
2022-10-19T17:58:02.406Z,3.20
2022-10-19T17:59:12.449Z,3.30
2022-10-19T18:01:37.558Z,2.97
2022-10-19T18:04:05.006Z,2.70
2022-10-19T18:06:34.136Z,2.72
2022-10-19T18:07:44.112Z,2.52
2022-10-19T18:08:57.106Z,2.90
2022-10-19T18:11:24.801Z,2.82
2022-10-19T18:13:50.773Z,24.70
2022-10-19T18:16:20.692Z,2.43
2022-10-19T18:18:51.103Z,2.42
2022-10-19T18:19:59.691Z,2.20
2022-10-19T18:21:12.653Z,2.65
2022-10-19T18:23:37.070Z,2.23
2022-10-19T18:24:47.248Z,2.27
2022-10-19T18:27:13.577Z,1.80
2022-10-19T18:29:37.197Z,1.58
2022-10-19T18:30:46.130Z,0.98
2022-10-19T18:31:55.387Z,0.90
2022-10-19T18:33:06.450Z,1.10
2022-10-19T18:35:37.440Z,1.35
2022-10-19T18:38:03.301Z,0.85
2022-10-19T18:39:14.954Z,1.20
2022-10-19T18:40:24.367Z,1.13
2022-10-19T18:42:48.707Z,0.95
2022-10-19T18:45:20.180Z,1.35
2022-10-19T18:47:45.745Z,1.20
2022-10-19T18:48:54.600Z,1.30
2022-10-19T18:51:19.994Z,1.03
2022-10-19T18:52:29.613Z,1.35
2022-10-19T18:54:53.320Z,1.47
2022-10-19T18:57:22.993Z,1.22
2022-10-19T18:59:47.469Z,0.82
2022-10-19T19:02:34.957Z,1.20
2022-10-19T19:04:58.235Z,1.10
2022-10-19T19:07:27.440Z,1.10
2022-10-19T19:08:39.851Z,1.35
2022-10-19T19:11:24.468Z,1.10
2022-10-19T19:13:54.519Z,1.17
2022-10-19T19:16:24.262Z,1.25
2022-10-19T19:17:33.915Z,1.30
2022-10-19T19:18:43.345Z,0.95
2022-10-19T19:21:24.172Z,0.87
2022-10-19T19:23:52.439Z,0.90
2022-10-19T19:25:02.382Z,0.95
2022-10-19T19:27:31.615Z,1.00
2022-10-19T19:29:59.401Z,1.15
2022-10-19T19:31:10.129Z,1.10
2022-10-19T19:33:34.515Z,1.08
2022-10-19T19:36:01.734Z,1.10
2022-10-19T19:37:12.013Z,1.15
2022-10-19T19:39:59.082Z,1.17
2022-10-19T19:42:21.463Z,0.90
2022-10-19T19:43:32.456Z,1.08
2022-10-19T19:44:41.026Z,0.90
2022-10-19T19:47:18.950Z,0.75
2022-10-19T19:49:43.026Z,0.88
2022-10-19T19:52:11.306Z,1.27
2022-10-19T19:53:20.146Z,0.95
2022-10-19T19:55:46.720Z,0.97
2022-10-19T19:56:56.541Z,1.18
2022-10-19T19:58:07.568Z,0.92
2022-10-19T20:00:33.957Z,1.08
2022-10-19T20:02:59.198Z,0.90
2022-10-19T20:05:26.037Z,1.08
2022-10-19T20:07:52.802Z,0.95
2022-10-19T20:10:17.812Z,1.07
2022-10-19T20:11:28.569Z,0.95
2022-10-19T20:13:53.798Z,0.93
2022-10-19T20:16:23.932Z,0.78
2022-10-19T20:18:51.161Z,1.00
2022-10-19T20:20:06.947Z,0.83
2022-10-19T20:22:33.541Z,0.68
2022-10-19T20:25:04.511Z,1.00
2022-10-19T20:27:35.140Z,0.80
2022-10-19T20:28:45.818Z,0.90
2022-10-19T20:31:13.686Z,0.62
2022-10-19T20:32:23.743Z,0.90
2022-10-19T20:33:35.504Z,0.95
2022-10-19T20:37:24.181Z,0.70
2022-10-19T20:39:50.930Z,0.65
2022-10-19T20:41:07.798Z,0.93
2022-10-19T20:42:18.868Z,1.00
2022-10-19T20:43:29.307Z,1.42
2022-10-19T20:45:52.813Z,1.50
2022-10-19T20:48:16.571Z,1.73
2022-10-19T20:49:26.239Z,1.80
2022-10-19T20:50:41.706Z,1.70
2022-10-19T20:53:11.006Z,1.93
2022-10-19T20:54:21.051Z,2.07
2022-10-19T20:56:44.915Z,1.80
2022-10-19T20:59:15.381Z,1.35
2022-10-19T21:01:42.487Z,1.83
2022-10-19T21:04:11.610Z,1.75
2022-10-19T21:06:42.489Z,1.55
2022-10-19T21:09:11.423Z,1.30
2022-10-19T21:10:20.806Z,1.17
2022-10-19T21:11:32.992Z,1.20
2022-10-19T21:12:42.669Z,1.10
2022-10-19T21:15:15.645Z,0.83
2022-10-19T21:16:37.555Z,1.35
2022-10-19T21:19:05.759Z,1.15
2022-10-19T21:21:34.696Z,1.25
2022-10-19T21:24:04.439Z,1.28
2022-10-19T21:25:14.139Z,1.43
2022-10-19T21:27:41.941Z,1.55
2022-10-19T21:28:55.156Z,1.20
2022-10-19T21:31:22.844Z,1.08
2022-10-19T21:33:47.367Z,0.98
2022-10-19T21:36:13.662Z,1.00
2022-10-19T21:37:22.713Z,0.82
2022-10-19T21:39:47.756Z,0.95
2022-10-19T21:41:03.871Z,1.10
2022-10-19T21:43:29.855Z,1.33
2022-10-19T21:44:38.939Z,1.15
2022-10-19T21:45:48.052Z,1.08
2022-10-19T21:48:13.501Z,0.92
2022-10-19T21:49:22.999Z,0.80
2022-10-19T21:51:53.175Z,0.85
2022-10-19T21:53:02.954Z,1.05
2022-10-19T21:54:15.319Z,0.80
2022-10-19T21:56:40.311Z,0.58
2022-10-19T21:59:05.334Z,0.62
2022-10-19T22:01:37.287Z,1.17
2022-10-19T22:04:00.901Z,1.35
2022-10-19T22:07:53.743Z,1.00
2022-10-19T22:10:21.382Z,1.00
2022-10-19T22:11:32.692Z,0.88
2022-10-19T22:12:41.768Z,0.72
2022-10-19T22:13:56.288Z,0.78
2022-10-19T22:16:23.473Z,0.75
2022-10-19T22:17:33.753Z,1.00
2022-10-19T22:18:44.094Z,1.00
2022-10-19T22:22:28.934Z,1.10
2022-10-19T22:23:38.666Z,1.20
2022-10-19T22:24:49.354Z,1.13
2022-10-19T22:26:00.214Z,0.80
2022-10-19T22:28:19.264Z,0.95
2022-10-19T22:30:44.469Z,0.90
2022-10-19T22:33:10.094Z,0.82
2022-10-19T22:34:19.730Z,0.82
2022-10-19T22:35:29.360Z,0.90
2022-10-19T22:36:38.787Z,1.08
2022-10-19T22:37:48.014Z,1.07
2022-10-19T22:38:56.918Z,0.82
2022-10-19T22:41:23.183Z,0.72
2022-10-19T22:43:49.069Z,0.80
2022-10-19T22:44:58.640Z,1.05
2022-10-19T22:47:23.142Z,0.73
2022-10-19T22:48:32.203Z,0.85
2022-10-19T22:50:57.914Z,0.73
2022-10-19T22:53:43.131Z,0.95
2022-10-19T22:56:12.281Z,0.77
2022-10-19T22:58:37.183Z,0.75
2022-10-19T23:01:11.091Z,1.12
2022-10-19T23:02:20.724Z,1.15
2022-10-19T23:04:45.621Z,1.12
2022-10-19T23:08:19.833Z,0.74
2022-10-19T23:09:28.915Z,0.85
2022-10-19T23:11:53.709Z,1.20
2022-10-19T23:14:19.259Z,0.80
2022-10-19T23:16:44.977Z,0.70
2022-10-19T23:19:09.357Z,0.98
2022-10-19T23:21:34.867Z,1.10
2022-10-19T23:22:43.897Z,1.00
2022-10-19T23:25:10.315Z,1.00
2022-10-19T23:28:45.514Z,0.93
2022-10-19T23:29:54.584Z,1.00
2022-10-19T23:32:22.439Z,0.77
2022-10-19T23:33:32.800Z,0.72
2022-10-19T23:36:06.635Z,0.74
2022-10-19T23:38:32.272Z,0.82
2022-10-19T23:40:56.859Z,0.70
2022-10-19T23:42:07.725Z,0.60
2022-10-19T23:45:41.701Z,0.80
2022-10-19T23:46:51.474Z,0.65
2022-10-19T23:48:00.303Z,0.90
2022-10-19T23:50:26.750Z,0.72
2022-10-19T23:52:52.265Z,0.78
2022-10-19T23:54:02.717Z,0.90
2022-10-19T23:55:12.454Z,0.78
2022-10-19T23:56:27.100Z,0.98
2022-10-19T23:57:36.137Z,1.02
